Tampa, Florida
Traffic Map
Current Weather Conditions
Tampa, Florida
Clear
Clear
18°
Feels Like: 18°
Wind Chill: 18° Ceiling: Unl
Heat Index: 18° Visibility: 10mi
Dew Point: Wind: 8mph
Humidity: 50% Direction: 70° (ENE)
Pressure: 30.21in Gusts: 0mph
Raw Report DataKTPA 270353Z 07007KT 10SM CLR 18/08 A3021 RMK AO2 SLP231 T01830078
Traffic Incident Summary
Active as of:
Severity:
Category:
InformationThere was an issue retrieving the traffic information for this location. Please try a different location or try again shortly.
Advertisements
Track Severe Weather on mobile